Time;durP1;ratioP1;P1;durP2;ratioP2;P2;SDS_P1;SDS_P2;PMS_P1;PMS_P2;Temp;Humidity;BMP_temperature;BMP_pressure;BME280_temperature;BME280_humidity;BME280_pressure;Samples;Min_cycle;Max_cycle;Signal;HPM_P1;HPM_P2
2022/11/23 00:00:00;;;;;;;;;8.50;6.25;;;;;8.34;72.00;99583.88;5078093;28;45433;-68
2022/11/23 00:02:32;;;;;;;;;6.50;5.00;;;;;8.29;72.42;99578.69;5074073;28;45903;-67
2022/11/23 00:04:58;;;;;;;;;10.25;7.25;;;;;8.15;72.52;99564.03;5073033;28;45655;-66
2022/11/23 00:07:24;;;;;;;;;5.25;3.50;;;;;8.12;72.86;99562.31;5059564;28;45246;-67
2022/11/23 00:09:49;;;;;;;;;7.00;5.25;;;;;8.12;72.86;99564.06;5077458;28;45489;-68
2022/11/23 00:12:19;;;;;;;;;8.25;5.00;;;;;8.12;73.23;99570.13;5070459;28;47680;-68
2022/11/23 00:14:45;;;;;;;;;36.50;30.50;;;;;8.12;73.01;99559.69;5059361;28;45346;-69
2022/11/23 00:17:10;;;;;;;;;25.25;17.00;;;;;8.18;73.24;99554.41;5075757;28;45502;-67
2022/11/23 00:19:36;;;;;;;;;6.50;5.50;;;;;8.14;73.02;99555.34;5064887;28;45343;-67
2022/11/23 00:22:02;;;;;;;;;6.25;5.50;;;;;8.07;73.16;99557.13;5077504;27;46024;-69
2022/11/23 00:24:27;;;;;;;;;9.00;6.25;;;;;7.93;73.79;99538.09;5070917;28;45858;-67
2022/11/23 00:26:53;;;;;;;;;5.00;4.75;;;;;7.95;74.26;99559.81;5044876;28;45594;-67
2022/11/23 00:29:18;;;;;;;;;9.50;7.50;;;;;7.80;74.25;99539.03;5075233;28;45472;-67
2022/11/23 00:31:44;;;;;;;;;9.75;4.25;;;;;7.85;74.49;99550.28;5073292;28;45868;-69
2022/11/23 00:34:10;;;;;;;;;14.50;8.25;;;;;7.88;74.19;99565.94;5072700;27;45374;-67
2022/11/23 00:36:35;;;;;;;;;7.00;5.50;;;;;7.76;74.48;99537.31;5073296;28;45380;-66
2022/11/23 00:39:01;;;;;;;;;5.75;2.25;;;;;7.78;74.58;99546.88;5052851;28;45830;-69
2022/11/23 00:41:27;;;;;;;;;6.50;6.25;;;;;7.83;75.10;99555.53;5044540;28;47124;-68
2022/11/23 00:43:53;;;;;;;;;8.25;5.25;;;;;7.78;74.74;99546.00;5065677;28;45381;-67
2022/11/23 00:46:20;;;;;;;;;9.50;5.25;;;;;7.77;75.09;99534.72;5076995;28;45425;-66
2022/11/23 00:48:54;;;;;;;;;7.75;6.00;;;;;7.82;74.98;99548.56;5076689;28;45508;-67
2022/11/23 00:51:22;;;;;;;;;6.25;5.75;;;;;7.88;74.41;99541.59;5072757;27;45784;-67
2022/11/23 00:53:49;;;;;;;;;5.75;5.75;;;;;7.86;74.61;99542.47;5072600;28;45609;-68
2022/11/23 00:56:15;;;;;;;;;9.75;5.25;;;;;7.84;74.82;99538.16;5073169;27;45383;-67
2022/11/23 00:58:41;;;;;;;;;8.25;5.00;;;;;7.58;74.86;99494.84;5054766;28;45814;-68
2022/11/23 01:01:12;;;;;;;;;6.25;6.25;;;;;7.84;75.04;99538.16;5071916;27;46173;-67
2022/11/23 01:03:44;;;;;;;;;8.25;5.75;;;;;7.80;74.65;99536.44;5072892;28;45485;-68
2022/11/23 01:06:12;;;;;;;;;7.75;5.25;;;;;7.84;74.91;99551.19;5072918;28;46893;-68
2022/11/23 01:08:38;;;;;;;;;7.75;4.00;;;;;7.88;74.69;99545.09;5072710;27;45749;-69
2022/11/23 01:11:07;;;;;;;;;10.00;5.00;;;;;7.83;74.78;99546.81;5058302;28;46389;-68
2022/11/23 01:13:33;;;;;;;;;12.50;6.00;;;;;7.70;75.14;99521.72;5036986;28;45476;-69
2022/11/23 01:15:59;;;;;;;;;7.50;4.50;;;;;7.82;75.05;99534.69;5055226;28;45441;-68
2022/11/23 01:18:24;;;;;;;;;11.25;7.00;;;;;7.78;74.91;99536.47;5056324;28;45378;-67
2022/11/23 01:20:50;;;;;;;;;7.00;5.00;;;;;7.84;74.85;99532.94;5066817;28;45576;-68
2022/11/23 01:23:16;;;;;;;;;8.75;5.75;;;;;7.77;75.36;99536.44;5057303;28;45492;-67
2022/11/23 01:25:42;;;;;;;;;8.00;7.00;;;;;7.70;75.85;99529.53;5055380;28;45370;-67
2022/11/23 01:28:07;;;;;;;;;8.25;6.25;;;;;7.63;76.05;99520.88;5078828;28;45486;-67
2022/11/23 01:30:35;;;;;;;;;8.25;5.25;;;;;7.51;75.92;99513.16;5069232;28;46899;-70
2022/11/23 01:33:02;;;;;;;;;8.00;6.25;;;;;7.56;76.04;99511.38;5068628;28;45372;-67
2022/11/23 01:35:28;;;;;;;;;12.50;7.00;;;;;7.58;76.65;99518.31;5079655;27;45478;-67
2022/11/23 01:37:53;;;;;;;;;16.00;7.50;;;;;7.39;76.47;99486.28;5079771;28;45405;-67
2022/11/23 01:40:19;;;;;;;;;7.50;6.25;;;;;7.54;76.33;99513.13;5076902;28;46055;-68
2022/11/23 01:42:55;;;;;;;;;9.00;6.25;;;;;7.47;76.93;99514.88;5075895;27;45680;-68
2022/11/23 01:45:35;;;;;;;;;10.25;6.50;;;;;7.42;77.00;99507.09;5079705;28;45414;-68
2022/11/23 01:48:03;;;;;;;;;7.50;6.25;;;;;7.39;77.21;99506.25;5079927;28;45344;-67
2022/11/23 01:50:29;;;;;;;;;17.75;8.25;;;;;7.05;77.66;99462.13;5079574;28;46172;-65
2022/11/23 01:52:56;;;;;;;;;8.75;5.50;;;;;7.10;77.41;99470.78;5076320;27;45540;-66
2022/11/23 01:55:22;;;;;;;;;12.50;8.00;;;;;7.25;77.49;99489.81;5075164;27;45901;-65
2022/11/23 01:57:48;;;;;;;;;7.50;6.50;;;;;7.15;78.09;99471.63;5057243;28;45502;-67
2022/11/23 02:00:15;;;;;;;;;12.75;6.75;;;;;7.21;78.05;99491.56;5076592;28;45521;-67
2022/11/23 02:02:48;;;;;;;;;12.25;11.00;;;;;7.26;77.87;99494.16;5077612;27;45476;-70
2022/11/23 02:05:18;;;;;;;;;11.00;6.50;;;;;7.34;77.76;99490.66;5075090;27;45777;-66
2022/11/23 02:07:46;;;;;;;;;5.00;5.00;;;;;7.30;77.58;99488.91;5075632;28;45501;-66
2022/11/23 02:10:12;;;;;;;;;14.75;8.75;;;;;7.38;77.46;99494.97;5074583;28;45480;-67
2022/11/23 02:12:37;;;;;;;;;13.50;10.00;;;;;7.38;77.79;99486.28;5056483;28;45758;-67
2022/11/23 02:15:03;;;;;;;;;15.00;10.50;;;;;7.36;78.23;99477.63;5074770;27;45425;-67
2022/11/23 02:17:29;;;;;;;;;9.00;7.75;;;;;7.35;78.33;99479.34;5077582;28;45422;-66
2022/11/23 02:20:09;;;;;;;;;7.00;6.25;;;;;7.40;77.97;99481.91;5078831;27;45622;-67
2022/11/23 02:22:49;;;;;;;;;10.00;8.00;;;;;7.38;78.04;99483.66;5058531;28;45414;-69
2022/11/23 02:25:27;;;;;;;;;10.25;7.25;;;;;7.39;78.13;99481.06;5061034;28;45489;-66
2022/11/23 02:27:53;;;;;;;;;10.50;8.00;;;;;7.43;78.11;99477.56;5077017;28;45746;-67
2022/11/23 02:30:19;;;;;;;;;14.00;10.25;;;;;7.45;78.13;99477.59;5079041;27;45482;-68
2022/11/23 02:32:44;;;;;;;;;10.50;7.50;;;;;7.41;78.60;99481.94;5078715;28;45570;-66
2022/11/23 02:35:11;;;;;;;;;9.25;7.75;;;;;7.41;78.74;99486.28;5077789;28;45488;-66
2022/11/23 02:37:37;;;;;;;;;11.25;6.50;;;;;7.38;78.66;99473.25;5074583;28;45339;-68
2022/11/23 02:40:15;;;;;;;;;5.50;5.00;;;;;7.34;78.91;99463.75;5073909;28;45643;-67
2022/11/23 02:42:43;;;;;;;;;10.50;9.00;;;;;7.41;78.57;99463.69;5067689;28;45547;-66
2022/11/23 02:45:32;;;;;;;;;9.25;7.25;;;;;7.43;79.27;99461.94;5073544;28;45456;-68
2022/11/23 02:47:58;;;;;;;;;13.25;6.50;;;;;7.36;79.19;99446.38;5078613;27;45367;-69
2022/11/23 02:50:24;;;;;;;;;10.00;8.00;;;;;7.44;79.20;99462.81;5075068;27;47143;-66
2022/11/23 02:52:50;;;;;;;;;7.25;6.50;;;;;7.41;79.42;99452.41;5074523;28;45710;-68
2022/11/23 02:55:16;;;;;;;;;11.75;7.00;;;;;7.39;79.14;99433.31;5055756;28;45556;-68
2022/11/23 02:57:42;;;;;;;;;13.00;7.25;;;;;7.52;78.75;99453.22;5073282;27;45583;-69
2022/11/23 03:00:09;;;;;;;;;13.75;11.00;;;;;7.54;79.26;99447.97;5059132;28;47162;-70
2022/11/23 03:02:34;;;;;;;;;8.00;8.00;;;;;7.45;79.01;99443.72;5078056;28;45350;-68
2022/11/23 03:05:00;;;;;;;;;10.25;9.50;;;;;7.45;79.38;99438.50;5076079;28;45477;-67
2022/11/23 03:07:25;;;;;;;;;11.00;9.25;;;;;7.50;79.62;99436.72;5074764;28;45438;-68
2022/11/23 03:09:51;;;;;;;;;14.50;10.50;;;;;7.46;79.08;99442.81;5076596;28;45979;-68
2022/11/23 03:12:16;;;;;;;;;9.50;9.50;;;;;7.38;79.43;99424.66;5077955;28;45476;-70
2022/11/23 03:14:42;;;;;;;;;14.50;10.25;;;;;7.43;79.40;99430.69;5078146;27;45291;-68
2022/11/23 03:17:11;;;;;;;;;12.75;7.50;;;;;7.24;79.65;99395.22;5059880;28;45425;-68
2022/11/23 03:19:36;;;;;;;;;8.50;5.25;;;;;7.43;79.65;99422.00;5077908;28;46293;-68
2022/11/23 03:22:03;;;;;;;;;10.75;9.00;;;;;7.28;79.27;99385.63;5075446;27;45479;-67
2022/11/23 03:24:28;;;;;;;;;11.50;8.00;;;;;7.55;78.98;99424.53;5070000;28;45483;-68
2022/11/23 03:26:54;;;;;;;;;16.25;8.50;;;;;7.55;78.94;99419.31;5063128;28;45532;-67
2022/11/23 03:29:20;;;;;;;;;13.00;8.75;;;;;7.56;78.71;99421.03;5073785;28;45832;-68
2022/11/23 03:31:45;;;;;;;;;8.75;8.00;;;;;7.60;79.08;99416.69;5073211;28;45478;-67
2022/11/23 03:34:11;;;;;;;;;9.00;8.75;;;;;7.49;79.39;99402.84;5059783;28;45467;-70
2022/11/23 03:36:36;;;;;;;;;10.00;9.00;;;;;7.51;79.71;99419.34;5053664;28;45800;-66
2022/11/23 03:39:02;;;;;;;;;8.00;7.75;;;;;7.39;79.59;99400.31;5053337;28;46341;-69
2022/11/23 03:41:27;;;;;;;;;11.25;10.00;;;;;7.44;79.93;99414.16;5056274;28;45475;-68
2022/11/23 03:43:53;;;;;;;;;13.50;8.25;;;;;7.45;80.09;99396.81;5059176;28;45421;-68
2022/11/23 03:46:19;;;;;;;;;11.25;7.25;;;;;7.31;79.78;99363.03;5054690;28;45343;-68
2022/11/23 03:48:44;;;;;;;;;8.00;6.50;;;;;7.43;80.67;99388.16;5055477;28;45493;-67
2022/11/23 03:51:10;;;;;;;;;8.00;8.00;;;;;7.38;79.92;99380.34;5053131;28;45558;-67
2022/11/23 03:53:35;;;;;;;;;14.75;7.25;;;;;7.49;80.32;99403.72;5035008;28;45913;-68
2022/11/23 03:56:01;;;;;;;;;9.25;8.00;;;;;7.49;80.62;99402.84;5057513;28;45643;-67
2022/11/23 03:58:27;;;;;;;;;8.50;7.50;;;;;7.41;80.81;99406.38;5049863;28;47793;-67
2022/11/23 04:00:54;;;;;;;;;13.25;7.25;;;;;7.18;81.02;99372.66;5068363;28;45497;-69
2022/11/23 04:03:20;;;;;;;;;7.25;7.00;;;;;7.37;81.16;99393.38;5069585;27;45425;-69
2022/11/23 04:05:45;;;;;;;;;15.50;7.75;;;;;7.43;80.58;99390.75;5063803;28;45465;-69
2022/11/23 04:08:11;;;;;;;;;11.00;9.50;;;;;7.47;80.88;99394.19;5069940;28;45508;-68
2022/11/23 04:10:36;;;;;;;;;7.00;3.00;;;;;7.37;80.80;99370.78;5073021;28;45399;-67
2022/11/23 04:13:02;;;;;;;;;12.50;8.00;;;;;7.46;81.16;99384.66;5071936;28;45339;-68
2022/11/23 04:15:28;;;;;;;;;12.75;9.25;;;;;7.47;81.51;99386.38;5063971;28;45446;-68
2022/11/23 04:17:54;;;;;;;;;12.50;9.25;;;;;7.40;82.09;99389.03;5074947;28;46039;-67
2022/11/23 04:20:20;;;;;;;;;12.75;7.75;;;;;7.31;82.23;99375.19;5073092;27;45576;-68
2022/11/23 04:22:45;;;;;;;;;13.00;12.50;;;;;7.20;82.12;99357.03;5073468;28;45391;-69
2022/11/23 04:25:11;;;;;;;;;8.00;8.00;;;;;7.31;82.39;99373.47;5073000;27;45331;-69
2022/11/23 04:27:36;;;;;;;;;11.50;9.00;;;;;7.39;82.52;99384.69;5076280;28;45418;-68
2022/11/23 04:30:03;;;;;;;;;10.50;8.50;;;;;7.42;82.47;99379.44;5073293;28;45467;-68
2022/11/23 04:32:28;;;;;;;;;8.50;7.75;;;;;7.38;82.65;99377.75;5058699;28;45561;-68
2022/11/23 04:34:54;;;;;;;;;10.50;9.50;;;;;7.35;83.00;99362.13;5073777;27;45415;-68
2022/11/23 04:37:19;;;;;;;;;0.00;0.00;;;;;7.39;83.25;99378.63;5069278;28;45597;-68
2022/11/23 04:39:45;;;;;;;;;10.00;7.75;;;;;7.33;83.82;99368.22;5044416;28;45514;-68
2022/11/23 04:42:11;;;;;;;;;12.50;10.00;;;;;7.29;83.97;99356.97;5072273;28;45590;-68
2022/11/23 04:44:37;;;;;;;;;16.75;7.00;;;;;7.25;84.31;99352.66;5075181;28;45520;-69
2022/11/23 04:47:02;;;;;;;;;7.75;7.75;;;;;7.30;84.30;99365.66;5080576;28;46618;-68
2022/11/23 04:49:31;;;;;;;;;11.50;7.75;;;;;7.27;84.41;99344.84;5060104;28;45458;-69
2022/11/23 04:51:57;;;;;;;;;12.50;9.75;;;;;7.32;84.35;99351.75;5076447;28;45431;-69
2022/11/23 04:54:22;;;;;;;;;10.75;8.50;;;;;7.30;84.25;99352.63;5076113;28;45847;-67
2022/11/23 04:56:48;;;;;;;;;13.00;10.00;;;;;7.33;84.79;99350.00;5076331;27;46095;-68
2022/11/23 04:59:14;;;;;;;;;14.50;8.25;;;;;7.28;85.04;99336.13;5076425;28;45506;-70
2022/11/23 05:01:39;;;;;;;;;13.00;8.25;;;;;7.32;86.04;99345.66;5076025;27;45569;-70
2022/11/23 05:04:05;;;;;;;;;9.50;8.25;;;;;7.33;85.37;99350.00;5077982;27;45338;-69
2022/11/23 05:06:30;;;;;;;;;9.25;9.25;;;;;7.40;85.59;99339.53;5065651;28;45416;-67
2022/11/23 05:08:56;;;;;;;;;7.75;6.50;;;;;7.45;85.36;99347.31;5076136;28;45466;-67
2022/11/23 05:11:21;;;;;;;;;6.50;5.25;;;;;7.39;85.42;99336.94;5071936;28;45527;-67
2022/11/23 05:13:47;;;;;;;;;10.50;7.25;;;;;7.44;86.11;99336.00;5080654;27;45461;-67
2022/11/23 05:16:13;;;;;;;;;9.25;7.75;;;;;7.43;85.91;99351.69;5080362;28;45581;-70
2022/11/23 05:18:38;;;;;;;;;4.00;4.00;;;;;7.35;85.45;99317.84;5078124;28;45477;-67
2022/11/23 05:21:04;;;;;;;;;5.50;5.50;;;;;7.40;85.30;99321.31;5075727;28;45516;-67
2022/11/23 05:23:30;;;;;;;;;7.25;5.50;;;;;7.58;84.83;99335.91;5076153;28;45303;-67
2022/11/23 05:25:55;;;;;;;;;6.00;5.50;;;;;7.60;85.09;99341.97;5075541;27;46667;-68
2022/11/23 05:28:21;;;;;;;;;10.75;9.00;;;;;7.59;85.25;99344.59;5075597;28;45445;-68
2022/11/23 05:30:47;;;;;;;;;12.75;5.25;;;;;7.53;84.95;99323.81;5075458;27;45564;-68
2022/11/23 05:33:13;;;;;;;;;8.75;7.00;;;;;7.57;85.19;99331.59;5077364;28;45420;-68
2022/11/23 05:35:39;;;;;;;;;8.75;8.75;;;;;7.59;84.88;99329.84;5078618;27;47260;-68
2022/11/23 05:38:05;;;;;;;;;10.25;9.75;;;;;7.38;84.86;99303.94;5079679;28;45338;-68
2022/11/23 05:40:31;;;;;;;;;7.50;7.50;;;;;7.65;84.97;99344.53;5079578;28;45559;-69
2022/11/23 05:42:57;;;;;;;;;12.75;9.75;;;;;7.68;85.03;99351.47;5078829;28;45501;-69
2022/11/23 05:45:24;;;;;;;;;9.50;8.25;;;;;7.63;84.88;99322.84;5075726;27;46109;-70
2022/11/23 05:47:56;;;;;;;;;9.25;8.00;;;;;7.72;84.73;99332.34;5077844;28;45485;-68
2022/11/23 05:50:23;;;;;;;;;12.25;9.75;;;;;7.78;84.65;99333.16;5076604;28;45947;-68
2022/11/23 05:52:57;;;;;;;;;11.75;7.25;;;;;7.84;84.37;99335.69;5076098;28;45370;-69
2022/11/23 05:55:23;;;;;;;;;12.00;6.75;;;;;7.84;84.16;99327.00;5059275;28;46759;-69
2022/11/23 05:57:52;;;;;;;;;11.00;6.75;;;;;7.89;83.97;99338.25;5075416;27;45786;-69
2022/11/23 06:00:18;;;;;;;;;8.00;8.00;;;;;7.94;83.63;99333.84;5075529;27;46107;-69
2022/11/23 06:02:44;;;;;;;;;17.25;12.25;;;;;7.96;83.71;99323.41;5052845;28;45737;-68
2022/11/23 06:05:10;;;;;;;;;10.50;9.75;;;;;7.95;83.98;99327.78;5057579;28;46192;-69
2022/11/23 06:07:36;;;;;;;;;9.25;8.00;;;;;7.92;83.52;99327.78;5072856;28;45313;-68
2022/11/23 06:10:03;;;;;;;;;13.25;9.25;;;;;7.97;83.65;99326.00;5075347;28;45442;-69
2022/11/23 06:12:29;;;;;;;;;15.50;11.00;;;;;7.87;84.08;99308.72;5074723;28;45590;-69
2022/11/23 06:14:55;;;;;;;;;11.25;7.50;;;;;7.92;83.25;99317.34;5074742;28;45337;-69
2022/11/23 06:17:22;;;;;;;;;11.75;10.75;;;;;7.98;83.67;99332.94;5075089;27;45605;-67
2022/11/23 06:19:47;;;;;;;;;11.25;10.25;;;;;7.98;84.12;99327.72;5078442;27;45520;-69
2022/11/23 06:22:14;;;;;;;;;13.00;8.50;;;;;8.04;83.41;99327.69;5075009;28;45505;-67
2022/11/23 06:24:40;;;;;;;;;15.75;8.50;;;;;8.06;83.27;99330.25;5075165;28;45567;-67
2022/11/23 06:27:06;;;;;;;;;13.50;11.00;;;;;8.06;83.32;99322.44;5067486;28;45432;-69
2022/11/23 06:29:31;;;;;;;;;7.00;6.50;;;;;8.01;83.33;99314.66;5068538;28;45466;-69
2022/11/23 06:31:57;;;;;;;;;8.00;7.00;;;;;8.06;83.75;99327.66;5072847;28;45377;-70
2022/11/23 06:34:23;;;;;;;;;10.25;5.75;;;;;8.01;83.49;99312.03;5065081;28;46135;-67
2022/11/23 06:36:48;;;;;;;;;7.00;5.00;;;;;8.09;83.39;99322.38;5068829;28;45755;-69
2022/11/23 06:39:14;;;;;;;;;11.25;6.50;;;;;8.05;83.54;99307.69;5054040;28;45368;-67
2022/11/23 06:41:40;;;;;;;;;7.50;7.50;;;;;7.97;83.66;99283.41;5053900;28;45429;-67
2022/11/23 06:44:06;;;;;;;;;8.00;5.00;;;;;8.05;83.74;99286.81;5055416;28;45886;-68
2022/11/23 06:46:32;;;;;;;;;12.75;9.75;;;;;8.11;82.92;99293.69;5054283;28;45524;-67
2022/11/23 06:49:28;;;;;;;;;11.25;7.00;;;;;8.08;83.56;99289.38;5062972;28;45488;-66
2022/11/23 06:52:07;;;;;;;;;8.50;6.50;;;;;8.10;83.26;99286.75;5037354;28;45593;-69
2022/11/23 06:54:32;;;;;;;;;11.25;5.75;;;;;8.11;83.19;99288.47;5066955;28;45361;-68
2022/11/23 06:56:59;;;;;;;;;4.50;4.50;;;;;8.07;83.19;99283.31;5062963;28;45448;-67
2022/11/23 06:59:25;;;;;;;;;8.25;5.00;;;;;8.06;83.26;99272.88;5070517;28;45818;-69
2022/11/23 07:01:50;;;;;;;;;5.75;5.75;;;;;8.12;83.18;99283.25;5066153;28;45344;-69
2022/11/23 07:04:25;;;;;;;;;7.50;6.25;;;;;8.13;82.94;99277.16;5064535;28;45725;-68
2022/11/23 07:06:51;;;;;;;;;8.25;6.75;;;;;8.09;83.05;99257.19;5043793;28;45900;-67
2022/11/23 07:09:19;;;;;;;;;9.00;8.75;;;;;8.19;82.84;99265.81;5075381;28;45287;-68
2022/11/23 07:11:45;;;;;;;;;12.75;7.75;;;;;8.16;82.38;99269.31;5067261;28;45480;-69
2022/11/23 07:14:11;;;;;;;;;13.25;7.25;;;;;8.09;81.90;99262.41;5053576;28;46170;-69
2022/11/23 07:16:36;;;;;;;;;6.75;4.25;;;;;8.13;82.05;99279.75;5058449;28;45292;-69
2022/11/23 07:19:02;;;;;;;;;10.25;5.50;;;;;8.14;81.72;99271.06;5057410;28;45409;-67
2022/11/23 07:21:28;;;;;;;;;6.75;5.00;;;;;8.11;80.69;99281.50;5056401;28;45423;-67
2022/11/23 07:23:57;;;;;;;;;6.50;5.00;;;;;8.07;80.68;99278.09;5056804;28;46094;-68
2022/11/23 07:26:27;;;;;;;;;6.00;5.50;;;;;8.05;80.56;99285.06;5055443;28;45441;-69
2022/11/23 07:28:52;;;;;;;;;7.00;5.00;;;;;8.05;80.26;99279.84;5054041;28;45340;-68
2022/11/23 07:31:18;;;;;;;;;5.50;5.50;;;;;7.92;80.28;99273.03;5057729;28;45586;-68
2022/11/23 07:33:45;;;;;;;;;6.75;5.00;;;;;7.96;80.18;99269.53;5058497;28;46216;-70
2022/11/23 07:36:14;;;;;;;;;7.00;5.00;;;;;8.08;79.84;99286.78;5036365;28;45528;-68
2022/11/23 07:38:40;;;;;;;;;5.75;5.00;;;;;8.03;79.54;99278.16;5054732;28;45420;-71
2022/11/23 07:41:05;;;;;;;;;6.00;5.75;;;;;8.01;79.59;99283.38;5036717;28;45485;-67
2022/11/23 07:43:31;;;;;;;;;7.00;4.75;;;;;8.11;79.54;99284.13;5059717;28;45793;-69
2022/11/23 07:45:56;;;;;;;;;5.50;4.00;;;;;8.12;79.35;99292.84;5054776;28;45615;-70
2022/11/23 07:48:25;;;;;;;;;7.00;6.50;;;;;8.08;79.31;99292.00;5054428;28;45541;-68
2022/11/23 07:50:54;;;;;;;;;4.00;4.00;;;;;8.08;79.95;99295.44;5036916;28;45354;-68
2022/11/23 07:53:19;;;;;;;;;5.00;4.25;;;;;8.13;79.70;99302.38;5064082;28;46112;-69
2022/11/23 07:56:08;;;;;;;;;4.75;3.00;;;;;8.13;79.77;99277.16;5067659;28;45388;-70
2022/11/23 07:58:34;;;;;;;;;5.00;3.25;;;;;8.14;80.28;99281.50;5072205;28;45318;-69
2022/11/23 08:00:59;;;;;;;;;4.00;4.00;;;;;8.18;80.11;99283.16;5076268;28;45378;-68
2022/11/23 08:03:25;;;;;;;;;3.75;3.75;;;;;8.17;79.63;99291.03;5065099;28;45445;-68
2022/11/23 08:05:50;;;;;;;;;8.25;6.75;;;;;8.03;79.99;99263.34;5057099;28;45548;-69
2022/11/23 08:08:16;;;;;;;;;6.25;3.75;;;;;8.15;79.99;99278.00;5068008;28;45428;-66
2022/11/23 08:10:42;;;;;;;;;5.00;3.50;;;;;8.17;80.22;99281.47;5054069;28;45610;-67
2022/11/23 08:13:08;;;;;;;;;4.75;4.25;;;;;8.13;80.79;99284.13;5055424;28;45427;-68
2022/11/23 08:15:53;;;;;;;;;7.00;3.00;;;;;8.21;81.09;99282.28;5053064;28;45624;-67
2022/11/23 08:18:18;;;;;;;;;5.00;3.00;;;;;8.25;81.04;99294.41;5054322;28;45832;-67
2022/11/23 08:20:44;;;;;;;;;5.25;4.75;;;;;8.14;81.22;99267.56;5066940;28;45479;-68
2022/11/23 08:23:10;;;;;;;;;4.25;3.00;;;;;8.10;81.07;99263.31;5060117;28;46098;-66
2022/11/23 08:25:35;;;;;;;;;5.25;4.00;;;;;8.19;81.51;99282.31;5061760;28;45675;-67
2022/11/23 08:28:03;;;;;;;;;8.00;3.25;;;;;8.19;81.68;99271.03;5062171;28;45902;-69
2022/11/23 08:30:40;;;;;;;;;4.00;4.00;;;;;8.29;81.28;99268.25;5056756;28;45358;-67
2022/11/23 08:33:14;;;;;;;;;4.00;3.75;;;;;8.26;81.13;99249.19;5056173;28;46095;-67
2022/11/23 08:35:43;;;;;;;;;4.00;4.00;;;;;8.28;80.60;99252.63;5059410;28;45727;-68
2022/11/23 08:38:13;;;;;;;;;4.75;3.50;;;;;8.17;80.73;99234.50;5059934;28;45410;-68
2022/11/23 08:40:39;;;;;;;;;5.00;3.50;;;;;8.20;80.69;99223.19;5057079;28;45423;-68
2022/11/23 08:43:05;;;;;;;;;6.25;5.00;;;;;8.27;80.02;99230.03;5055992;28;46187;-67
2022/11/23 08:45:30;;;;;;;;;6.25;3.75;;;;;8.35;79.93;99230.81;5057742;28;45723;-67
2022/11/23 08:48:00;;;;;;;;;6.75;4.00;;;;;8.28;79.93;99218.72;5074266;28;45497;-68
2022/11/23 08:50:34;;;;;;;;;6.75;4.00;;;;;8.24;79.97;99194.44;5042582;28;45512;-67
2022/11/23 08:53:00;;;;;;;;;4.00;4.00;;;;;8.43;79.63;99207.25;5045636;28;45408;-69
2022/11/23 08:55:27;;;;;;;;;8.50;4.00;;;;;8.36;79.88;99185.56;5071467;28;45537;-67
2022/11/23 08:57:57;;;;;;;;;4.25;4.25;;;;;8.37;79.81;99189.03;5042087;28;45504;-68
2022/11/23 09:00:27;;;;;;;;;4.00;4.00;;;;;8.38;80.38;99209.91;5071874;27;45412;-68
2022/11/23 09:03:00;;;;;;;;;8.00;5.75;;;;;8.26;80.32;99197.88;5059536;28;45481;-69
2022/11/23 09:05:27;;;;;;;;;4.25;4.25;;;;;8.43;80.24;99205.50;5041905;28;45529;-68
2022/11/23 09:07:55;;;;;;;;;7.50;4.50;;;;;8.48;80.18;99195.00;5058685;28;45465;-69
2022/11/23 09:10:23;;;;;;;;;8.50;4.00;;;;;8.43;79.53;99187.25;5070722;28;45476;-70
2022/11/23 09:12:49;;;;;;;;;4.50;3.75;;;;;8.51;80.16;99200.19;5037309;28;47445;-67
2022/11/23 09:15:15;;;;;;;;;6.25;4.00;;;;;8.46;80.57;99184.59;5056251;28;45677;-68
2022/11/23 09:17:42;;;;;;;;;6.00;4.00;;;;;8.51;80.59;99176.69;5062434;28;45544;-67
2022/11/23 09:20:09;;;;;;;;;4.50;4.00;;;;;8.52;80.65;99190.59;5055325;28;45403;-68
2022/11/23 09:22:34;;;;;;;;;5.00;4.00;;;;;8.48;80.71;99172.38;5054692;28;45465;-67
2022/11/23 09:25:00;;;;;;;;;5.50;4.00;;;;;8.52;80.65;99172.34;5058100;28;45327;-67
2022/11/23 09:27:26;;;;;;;;;5.75;4.00;;;;;8.54;80.80;99179.25;5059247;28;45594;-68
2022/11/23 09:29:51;;;;;;;;;4.75;4.00;;;;;8.60;81.12;99186.16;5055530;28;45355;-67
2022/11/23 09:32:17;;;;;;;;;5.25;3.25;;;;;8.53;81.23;99169.72;5055144;28;45645;-68
2022/11/23 09:34:44;;;;;;;;;5.00;3.25;;;;;8.61;81.39;99180.91;5056778;28;45416;-68
2022/11/23 09:37:10;;;;;;;;;5.25;4.00;;;;;8.66;81.58;99172.97;5065061;28;45800;-67
2022/11/23 09:39:36;;;;;;;;;5.00;4.00;;;;;8.68;82.03;99166.88;5059619;28;45425;-68
2022/11/23 09:42:12;;;;;;;;;3.75;3.75;;;;;8.53;81.96;99141.00;5055243;28;45494;-68
2022/11/23 09:45:00;;;;;;;;;3.75;2.75;;;;;8.66;82.45;99163.44;5039123;28;45516;-67
2022/11/23 09:47:45;;;;;;;;;3.00;3.00;;;;;8.72;82.43;99156.38;5059836;28;45414;-69
2022/11/23 09:50:22;;;;;;;;;4.00;4.00;;;;;8.67;82.40;99146.88;5059543;28;45269;-66
2022/11/23 09:52:49;;;;;;;;;4.00;4.00;;;;;8.38;83.04;99105.53;5054730;28;46162;-69
2022/11/23 09:55:36;;;;;;;;;4.00;4.00;;;;;8.64;83.53;99164.34;5055025;28;45648;-67
2022/11/23 09:58:05;;;;;;;;;2.00;2.00;;;;;8.63;83.76;99160.00;5036765;28;45406;-67
2022/11/23 10:01:02;;;;;;;;;3.00;2.25;;;;;8.62;83.91;99142.63;5039646;28;45373;-68
2022/11/23 10:03:32;;;;;;;;;4.00;3.50;;;;;8.62;84.41;99140.00;5057455;28;46286;-70
2022/11/23 10:06:19;;;;;;;;;3.00;3.00;;;;;8.57;84.82;99134.88;5057237;28;45366;-67
2022/11/23 10:09:05;;;;;;;;;4.00;3.00;;;;;8.46;84.64;99119.34;5074930;27;45409;-68
2022/11/23 10:12:03;;;;;;;;;4.50;4.50;;;;;8.56;85.32;99154.00;5075492;27;45751;-69
2022/11/23 10:15:08;;;;;;;;;5.50;4.00;;;;;8.45;85.83;99133.31;5074732;28;45496;-68
2022/11/23 10:17:59;;;;;;;;;3.25;3.25;;;;;8.56;85.75;99132.25;5056697;28;45520;-68
2022/11/23 10:21:05;;;;;;;;;4.00;2.25;;;;;8.50;86.39;99138.44;5062211;28;45458;-68
2022/11/23 10:24:03;;;;;;;;;7.00;4.50;;;;;8.54;86.64;99170.56;5078007;28;45536;-69
2022/11/23 10:26:41;;;;;;;;;5.50;3.00;;;;;8.58;86.34;99169.66;5060290;28;45801;-68
2022/11/23 10:29:29;;;;;;;;;5.00;5.00;;;;;8.62;86.32;99180.00;5078978;28;45381;-66
2022/11/23 10:31:57;;;;;;;;;7.25;4.00;;;;;8.37;86.64;99134.25;5078556;28;45212;-70
2022/11/23 10:34:47;;;;;;;;;2.50;2.50;;;;;8.56;86.93;99180.09;5061437;28;45276;-69
2022/11/23 10:37:16;;;;;;;;;8.25;5.00;;;;;8.54;86.87;99176.63;5053721;28;46229;-69
2022/11/23 10:39:41;;;;;;;;;7.00;4.50;;;;;8.56;87.49;99184.47;5056670;28;45582;-69
2022/11/23 10:42:22;;;;;;;;;5.25;4.75;;;;;8.60;87.02;99186.16;5039069;28;45391;-69
2022/11/23 10:44:50;;;;;;;;;8.25;5.50;;;;;8.58;86.99;99169.66;5059383;28;45469;-68
2022/11/23 10:47:36;;;;;;;;;4.50;4.00;;;;;8.70;86.85;99185.97;5054134;28;46628;-68
2022/11/23 10:50:02;;;;;;;;;4.50;4.00;;;;;8.74;86.88;99189.41;5055915;28;45474;-69
2022/11/23 10:52:32;;;;;;;;;3.75;2.25;;;;;8.74;86.45;99192.03;5057833;28;45394;-69
2022/11/23 10:55:01;;;;;;;;;4.50;4.00;;;;;8.83;86.43;99193.63;5057883;28;45608;-69
2022/11/23 10:57:27;;;;;;;;;4.00;3.75;;;;;8.94;85.92;99199.53;5056316;28;45371;-69
2022/11/23 11:00:08;;;;;;;;;4.00;4.00;;;;;8.95;85.60;99198.66;5053630;28;45498;-69
2022/11/23 11:02:53;;;;;;;;;5.00;3.00;;;;;8.96;86.23;99194.28;5053642;28;45494;-67
2022/11/23 11:05:21;;;;;;;;;3.75;2.00;;;;;9.05;85.72;99199.38;5057173;28;45609;-68
2022/11/23 11:07:47;;;;;;;;;4.00;4.00;;;;;9.00;86.52;99189.00;5074179;28;46214;-68
2022/11/23 11:10:43;;;;;;;;;2.25;2.25;;;;;9.17;85.58;99198.31;5077849;28;45520;-67
2022/11/23 11:13:21;;;;;;;;;3.50;2.25;;;;;9.23;85.51;99198.19;5060111;28;45345;-67
2022/11/23 11:15:52;;;;;;;;;4.00;3.00;;;;;9.26;85.71;99191.16;5074339;28;45461;-69
2022/11/23 11:18:19;;;;;;;;;3.00;3.00;;;;;9.23;86.21;99195.56;5075343;28;46409;-67
2022/11/23 11:20:45;;;;;;;;;3.00;3.00;;;;;9.29;86.30;99196.34;5076765;28;45569;-67
2022/11/23 11:23:21;;;;;;;;;6.00;4.00;;;;;9.40;85.71;99200.53;5062906;28;45553;-68
2022/11/23 11:25:48;;;;;;;;;6.25;6.25;;;;;9.48;85.78;99220.38;5063692;28;45449;-68
2022/11/23 11:28:39;;;;;;;;;6.00;6.00;;;;;9.49;86.06;99221.25;5076802;28;45600;-66
2022/11/23 11:31:21;;;;;;;;;7.75;5.75;;;;;9.55;85.80;99211.56;5073521;28;45378;-67
2022/11/23 11:34:07;;;;;;;;;7.75;6.50;;;;;9.42;85.86;99188.28;5076020;28;45362;-66
2022/11/23 11:36:59;;;;;;;;;5.00;4.50;;;;;9.70;85.47;99233.06;5072191;28;45339;-67
2022/11/23 11:39:34;;;;;;;;;3.75;3.75;;;;;9.86;85.05;99233.66;5045012;28;47727;-67
2022/11/23 11:42:04;;;;;;;;;4.00;4.00;;;;;9.92;84.77;99237.03;5074706;27;45374;-68
2022/11/23 11:44:36;;;;;;;;;6.50;5.50;;;;;10.07;84.62;99221.91;5073315;28;46101;-67
2022/11/23 11:47:30;;;;;;;;;9.00;6.25;;;;;10.19;84.22;99235.59;5075745;28;45295;-66